createdAt,value
2022-12-25T00:00:30.416Z,4.35
2022-12-25T00:02:59.106Z,4.38
2022-12-25T00:05:27.973Z,3.92
2022-12-25T00:07:56.759Z,3.92
2022-12-25T00:10:25.357Z,3.72
2022-12-25T00:12:54.945Z,3.40
2022-12-25T00:15:23.099Z,3.50
2022-12-25T00:17:51.967Z,3.58
2022-12-25T00:20:20.661Z,3.50
2022-12-25T00:22:49.455Z,3.60
2022-12-25T00:25:18.231Z,3.03
2022-12-25T00:27:46.908Z,3.17
2022-12-25T00:30:16.777Z,3.35
2022-12-25T00:32:45.259Z,3.97
2022-12-25T00:35:13.400Z,4.65
2022-12-25T00:37:42.061Z,3.67
2022-12-25T00:40:11.269Z,3.45
2022-12-25T00:42:40.053Z,3.05
2022-12-25T00:45:09.280Z,3.65
2022-12-25T00:47:39.426Z,3.80
2022-12-25T00:50:08.578Z,3.35
2022-12-25T00:52:37.127Z,3.20
2022-12-25T00:55:05.474Z,3.20
2022-12-25T00:57:35.152Z,3.13
2022-12-25T01:00:03.773Z,3.33
2022-12-25T01:02:32.619Z,2.97
2022-12-25T01:05:02.534Z,3.03
2022-12-25T01:07:30.807Z,3.40
2022-12-25T01:10:16.727Z,2.60
2022-12-25T01:12:45.423Z,2.57
2022-12-25T01:15:14.305Z,2.97
2022-12-25T01:17:42.942Z,3.10
2022-12-25T01:20:13.985Z,3.90
2022-12-25T01:22:42.798Z,3.17
2022-12-25T01:25:11.843Z,3.67
2022-12-25T01:27:40.791Z,3.50
2022-12-25T01:30:10.225Z,3.20
2022-12-25T01:32:38.500Z,3.35
2022-12-25T01:35:07.598Z,2.80
2022-12-25T01:37:37.858Z,3.15
2022-12-25T01:40:07.184Z,3.35
2022-12-25T01:42:35.982Z,3.25
2022-12-25T01:45:22.546Z,2.90
2022-12-25T01:47:50.898Z,2.78
2022-12-25T01:50:19.626Z,2.85
2022-12-25T01:52:53.039Z,2.85
2022-12-25T01:55:21.689Z,2.90
2022-12-25T01:57:50.496Z,3.35
2022-12-25T02:00:19.021Z,3.38
2022-12-25T02:02:48.100Z,3.33
2022-12-25T02:05:19.876Z,4.00
2022-12-25T02:07:49.149Z,4.00
2022-12-25T02:10:19.340Z,4.28
2022-12-25T02:12:48.892Z,3.70
2022-12-25T02:15:19.831Z,3.95
2022-12-25T02:17:51.934Z,4.32
2022-12-25T02:20:42.050Z,3.80
2022-12-25T02:23:25.271Z,3.85
2022-12-25T02:26:01.279Z,4.05
2022-12-25T02:28:34.514Z,3.45
2022-12-25T02:31:09.397Z,4.05
2022-12-25T02:33:59.388Z,3.67
2022-12-25T02:36:30.580Z,3.00
2022-12-25T02:39:19.030Z,3.50
2022-12-25T02:41:49.717Z,3.85
2022-12-25T02:44:41.827Z,3.10
2022-12-25T02:47:28.347Z,2.58
2022-12-25T02:50:16.889Z,2.47
2022-12-25T02:53:03.377Z,2.42
2022-12-25T02:55:51.540Z,2.65
2022-12-25T02:58:39.729Z,2.83
2022-12-25T03:01:28.909Z,2.90
2022-12-25T03:04:16.579Z,3.08
2022-12-25T03:06:59.492Z,2.90
2022-12-25T03:09:55.466Z,2.55
2022-12-25T03:12:30.802Z,2.80
2022-12-25T03:15:16.494Z,2.60
2022-12-25T03:17:46.557Z,2.92
2022-12-25T03:20:32.335Z,2.72
2022-12-25T03:23:18.217Z,2.92
2022-12-25T03:26:03.458Z,3.25
2022-12-25T03:28:31.958Z,2.65
2022-12-25T03:31:12.552Z,3.10
2022-12-25T03:34:19.029Z,2.75
2022-12-25T03:36:58.812Z,2.85
2022-12-25T03:39:46.739Z,2.67
2022-12-25T03:42:34.527Z,2.50
2022-12-25T03:45:30.190Z,3.03
2022-12-25T03:48:24.718Z,2.85
2022-12-25T03:51:12.465Z,2.95
2022-12-25T03:54:01.496Z,2.75
2022-12-25T03:56:48.907Z,2.75
2022-12-25T03:59:37.801Z,3.10
2022-12-25T04:02:23.590Z,2.65
2022-12-25T04:05:10.045Z,2.83
2022-12-25T04:07:55.612Z,3.33
2022-12-25T04:10:43.377Z,2.90
2022-12-25T04:13:40.449Z,2.80
2022-12-25T04:16:26.248Z,2.75
2022-12-25T04:19:12.448Z,3.10
2022-12-25T04:21:58.481Z,3.30
2022-12-25T04:24:53.097Z,3.10
2022-12-25T04:27:40.636Z,3.03
2022-12-25T04:30:26.887Z,3.35
2022-12-25T04:33:15.917Z,3.10
2022-12-25T04:36:05.172Z,2.60
2022-12-25T04:38:33.916Z,3.00
2022-12-25T04:41:05.755Z,2.70
2022-12-25T04:43:35.979Z,2.83
2022-12-25T04:46:06.322Z,2.55
2022-12-25T04:48:36.882Z,2.83
2022-12-25T04:51:12.557Z,3.28
2022-12-25T04:53:46.648Z,3.08
2022-12-25T04:56:15.828Z,3.20
2022-12-25T04:58:49.247Z,3.40
2022-12-25T05:01:21.068Z,2.97
2022-12-25T05:03:49.818Z,3.10
2022-12-25T05:06:19.011Z,2.85
2022-12-25T05:11:45.671Z,3.15
2022-12-25T05:14:14.551Z,2.85
2022-12-25T05:16:43.437Z,3.20
2022-12-25T05:19:11.971Z,2.95
2022-12-25T05:21:40.603Z,3.63
2022-12-25T05:24:08.729Z,3.17
2022-12-25T05:26:37.229Z,3.13
2022-12-25T05:29:07.494Z,3.53
2022-12-25T05:31:35.857Z,3.00
2022-12-25T05:34:04.541Z,3.30
2022-12-25T05:36:33.033Z,3.63
2022-12-25T05:39:01.340Z,3.90
2022-12-25T05:41:34.134Z,3.65
2022-12-25T05:44:03.469Z,2.83
2022-12-25T05:46:33.566Z,3.05
2022-12-25T05:49:02.263Z,2.80
2022-12-25T05:51:30.959Z,3.17
2022-12-25T05:53:59.288Z,3.53
2022-12-25T05:56:27.443Z,3.05
2022-12-25T05:58:57.272Z,3.47
2022-12-25T06:01:27.032Z,3.40
2022-12-25T06:03:57.898Z,3.60
2022-12-25T06:06:26.718Z,3.90
2022-12-25T06:08:55.369Z,3.67
2022-12-25T06:11:24.192Z,3.97
2022-12-25T06:13:53.275Z,4.90
2022-12-25T06:16:21.633Z,3.80
2022-12-25T06:18:52.024Z,4.10
2022-12-25T06:21:22.592Z,4.55
2022-12-25T06:23:51.326Z,4.45
2022-12-25T06:26:20.945Z,4.35
2022-12-25T06:28:50.061Z,4.45
2022-12-25T06:31:19.843Z,4.32
2022-12-25T06:33:48.687Z,5.00
2022-12-25T06:36:19.609Z,4.80
2022-12-25T06:38:52.721Z,5.00
2022-12-25T06:41:21.701Z,4.93
2022-12-25T06:43:50.458Z,4.47
2022-12-25T06:46:19.583Z,4.32
2022-12-25T06:48:49.743Z,4.72
2022-12-25T06:51:19.105Z,4.45
2022-12-25T06:53:47.793Z,4.72
2022-12-25T06:56:18.298Z,4.25
2022-12-25T06:58:47.605Z,8.25
2022-12-25T07:01:19.557Z,6.25
2022-12-25T07:03:49.087Z,8.10
2022-12-25T07:06:17.797Z,7.15
2022-12-25T07:08:46.877Z,8.60
2022-12-25T07:11:21.407Z,3.83
2022-12-25T07:37:22.062Z,10.68
2022-12-25T07:40:06.501Z,14.52
2022-12-25T07:42:54.943Z,28.30
2022-12-25T07:45:41.154Z,40.63
2022-12-25T07:48:16.630Z,19.00
2022-12-25T07:50:57.369Z,20.98
2022-12-25T07:53:26.064Z,18.52
2022-12-25T07:56:01.106Z,16.15
2022-12-25T07:58:31.777Z,15.07
2022-12-25T08:01:04.141Z,14.45
2022-12-25T08:03:36.078Z,13.38
2022-12-25T08:06:05.515Z,8.18
2022-12-25T08:08:34.010Z,12.80
2022-12-25T08:11:02.880Z,16.85
2022-12-25T08:13:33.726Z,16.13
2022-12-25T08:16:03.796Z,10.60
2022-12-25T08:18:33.152Z,7.22
2022-12-25T08:21:04.140Z,7.22
2022-12-25T08:23:34.950Z,7.53
2022-12-25T08:26:05.531Z,7.47
2022-12-25T08:28:36.927Z,7.32
2022-12-25T08:31:12.213Z,10.90
2022-12-25T08:33:41.380Z,8.18
2022-12-25T08:36:10.733Z,6.80
2022-12-25T08:38:39.670Z,6.20
2022-12-25T08:41:09.027Z,5.68
2022-12-25T08:43:42.365Z,5.45
2022-12-25T08:46:12.430Z,5.60
2022-12-25T08:48:43.605Z,6.00
2022-12-25T08:51:14.642Z,7.97
2022-12-25T08:53:43.846Z,8.70
2022-12-25T08:56:12.517Z,9.68
2022-12-25T08:58:42.487Z,7.35
2022-12-25T09:01:12.488Z,5.53
2022-12-25T09:03:41.607Z,5.18
2022-12-25T09:06:11.534Z,5.13
2022-12-25T09:08:47.759Z,4.22
2022-12-25T09:11:18.562Z,4.20
2022-12-25T09:13:49.328Z,3.70
2022-12-25T09:16:18.724Z,3.85
2022-12-25T09:18:47.366Z,4.22
2022-12-25T09:21:16.953Z,4.70
2022-12-25T09:23:45.952Z,4.35
2022-12-25T09:26:15.216Z,3.63
2022-12-25T09:28:50.870Z,4.50
2022-12-25T09:31:23.061Z,4.15
2022-12-25T09:33:52.352Z,3.60
2022-12-25T09:36:23.642Z,3.67
2022-12-25T09:38:52.529Z,3.72
2022-12-25T09:41:24.982Z,3.97
2022-12-25T09:43:57.563Z,3.88
2022-12-25T09:46:37.115Z,4.05
2022-12-25T09:49:08.082Z,4.82
2022-12-25T09:51:39.230Z,5.30
2022-12-25T09:54:12.249Z,4.45
2022-12-25T09:56:40.840Z,3.90
2022-12-25T09:59:14.579Z,3.30
2022-12-25T10:01:53.064Z,4.60
2022-12-25T10:04:27.338Z,4.10
2022-12-25T10:07:01.893Z,3.70
2022-12-25T10:09:35.587Z,3.80
2022-12-25T10:12:12.698Z,2.97
2022-12-25T10:14:44.028Z,4.28
2022-12-25T10:17:20.192Z,3.67
2022-12-25T10:19:51.632Z,3.70
2022-12-25T10:22:21.347Z,4.50
2022-12-25T10:24:51.519Z,5.00
2022-12-25T10:27:20.651Z,4.47
2022-12-25T10:29:51.684Z,4.25
2022-12-25T10:32:22.485Z,4.20
2022-12-25T10:34:51.731Z,3.78
2022-12-25T10:37:20.047Z,3.92
2022-12-25T10:39:48.695Z,3.92
2022-12-25T10:42:38.211Z,3.58
2022-12-25T10:45:08.156Z,3.60
2022-12-25T10:47:39.692Z,3.15
2022-12-25T10:50:10.078Z,3.55
2022-12-25T10:52:48.072Z,3.67
2022-12-25T10:55:25.084Z,3.20
2022-12-25T10:57:58.105Z,3.50
2022-12-25T11:00:28.294Z,3.00
2022-12-25T11:02:59.818Z,3.10
2022-12-25T11:05:30.433Z,3.10
2022-12-25T11:08:01.329Z,3.45
2022-12-25T11:10:31.784Z,4.18
2022-12-25T11:13:00.587Z,3.70
2022-12-25T11:15:35.754Z,3.67
2022-12-25T11:18:05.950Z,3.55
2022-12-25T11:20:34.312Z,3.20
2022-12-25T11:23:03.134Z,3.53
2022-12-25T11:25:32.716Z,3.55
2022-12-25T11:28:02.657Z,3.53
2022-12-25T11:30:32.124Z,3.58
2022-12-25T11:33:02.680Z,3.45
2022-12-25T11:35:33.999Z,3.58
2022-12-25T11:38:03.117Z,3.28
2022-12-25T11:40:46.207Z,3.10
2022-12-25T11:43:17.076Z,3.00
2022-12-25T11:45:48.868Z,2.75
2022-12-25T11:48:19.577Z,2.60
2022-12-25T11:50:51.281Z,2.58
2022-12-25T11:53:22.188Z,2.60
2022-12-25T11:55:54.990Z,2.80
2022-12-25T11:58:24.853Z,3.03
2022-12-25T12:00:56.499Z,2.80
2022-12-25T12:03:28.186Z,2.92
2022-12-25T12:05:59.324Z,2.53
2022-12-25T12:08:32.225Z,2.45
2022-12-25T12:11:17.086Z,2.60
2022-12-25T12:13:57.876Z,2.60
2022-12-25T12:16:26.766Z,8.80
2022-12-25T12:18:55.830Z,9.25
2022-12-25T12:21:30.016Z,11.30
2022-12-25T12:24:02.597Z,11.52
2022-12-25T12:26:31.914Z,11.27
2022-12-25T12:29:01.253Z,10.98
2022-12-25T12:31:39.741Z,11.20
2022-12-25T12:34:12.090Z,11.15
2022-12-25T12:36:42.507Z,10.93
2022-12-25T12:39:24.321Z,11.57
2022-12-25T12:41:52.705Z,11.63
2022-12-25T12:44:22.034Z,12.75
2022-12-25T12:46:54.948Z,13.52
2022-12-25T12:49:24.570Z,13.57
2022-12-25T12:52:04.288Z,14.10
2022-12-25T12:54:32.536Z,14.93
2022-12-25T12:57:02.056Z,14.05
2022-12-25T12:59:36.148Z,14.05
2022-12-25T13:02:14.300Z,14.32
2022-12-25T13:05:00.749Z,14.40
2022-12-25T13:07:43.968Z,14.13
2022-12-25T13:10:21.512Z,14.13
2022-12-25T13:12:53.537Z,13.20
2022-12-25T13:15:23.541Z,13.02
2022-12-25T13:17:52.361Z,13.48
2022-12-25T13:20:24.346Z,13.02
2022-12-25T13:22:54.755Z,13.02
2022-12-25T13:25:24.306Z,13.30
2022-12-25T13:27:56.537Z,14.07
2022-12-25T13:30:26.091Z,14.48
2022-12-25T13:32:54.437Z,13.43
2022-12-25T13:35:24.206Z,12.73
2022-12-25T13:37:54.962Z,12.90
2022-12-25T13:40:25.555Z,12.18
2022-12-25T13:42:57.033Z,11.77
2022-12-25T13:45:26.173Z,11.00
2022-12-25T13:47:55.750Z,11.63
2022-12-25T13:50:25.675Z,11.25
2022-12-25T13:52:56.544Z,10.25
2022-12-25T13:55:26.553Z,10.73
2022-12-25T13:57:55.662Z,11.02
2022-12-25T14:00:25.966Z,11.13
2022-12-25T14:02:54.994Z,10.27
2022-12-25T14:05:26.591Z,10.75
2022-12-25T14:07:57.250Z,11.00
2022-12-25T14:10:27.230Z,11.63
2022-12-25T14:12:57.770Z,10.43
2022-12-25T14:15:27.165Z,11.10
2022-12-25T14:17:56.035Z,10.82
2022-12-25T14:20:25.954Z,10.48
2022-12-25T14:22:56.332Z,10.57
2022-12-25T14:25:30.008Z,10.10
2022-12-25T14:27:58.302Z,9.90
2022-12-25T14:30:30.090Z,9.68
2022-12-25T14:32:58.800Z,10.27
2022-12-25T14:35:27.510Z,9.93
2022-12-25T14:38:01.330Z,9.60
2022-12-25T14:40:32.094Z,8.63
2022-12-25T14:43:01.499Z,8.93
2022-12-25T14:45:31.548Z,8.35
2022-12-25T14:48:02.926Z,8.60
2022-12-25T14:50:33.619Z,8.40
2022-12-25T14:53:01.883Z,9.57
2022-12-25T14:55:32.600Z,10.77
2022-12-25T14:58:04.571Z,11.75
2022-12-25T15:00:35.505Z,13.63
2022-12-25T15:03:06.193Z,13.48
2022-12-25T15:05:35.628Z,13.60
2022-12-25T15:08:06.501Z,14.15
2022-12-25T15:13:26.388Z,14.32
2022-12-25T15:15:58.996Z,15.00
2022-12-25T15:18:29.017Z,15.40
2022-12-25T15:20:57.642Z,15.30
2022-12-25T15:23:26.506Z,14.27
2022-12-25T15:25:56.656Z,13.65
2022-12-25T15:28:25.493Z,15.25
2022-12-25T15:30:54.318Z,14.85
2022-12-25T15:33:22.890Z,13.43
2022-12-25T15:35:51.342Z,12.55
2022-12-25T15:38:19.933Z,12.13
2022-12-25T15:40:48.504Z,11.43
2022-12-25T15:43:39.812Z,11.38
2022-12-25T15:46:07.640Z,10.93
2022-12-25T15:48:35.947Z,12.00
2022-12-25T15:51:04.662Z,12.48
2022-12-25T15:53:33.500Z,11.30
2022-12-25T15:56:02.039Z,12.38
2022-12-25T15:58:32.050Z,10.18
2022-12-25T16:01:00.659Z,10.60
2022-12-25T16:03:28.860Z,10.73
2022-12-25T16:05:57.926Z,9.35
2022-12-25T16:08:26.186Z,10.73
2022-12-25T16:10:54.970Z,10.73
2022-12-25T16:13:23.406Z,9.27
2022-12-25T16:15:53.394Z,9.15
2022-12-25T16:18:24.019Z,8.80
2022-12-25T16:20:52.613Z,9.43
2022-12-25T16:23:21.068Z,9.90
2022-12-25T16:25:49.715Z,9.48
2022-12-25T16:28:18.381Z,10.07
2022-12-25T16:30:47.467Z,10.07
2022-12-25T16:33:18.133Z,9.25
2022-12-25T16:35:47.304Z,9.32
2022-12-25T16:38:15.918Z,9.30
2022-12-25T16:40:45.274Z,9.95
2022-12-25T16:43:17.552Z,9.43
2022-12-25T16:45:50.777Z,9.35
2022-12-25T16:48:20.604Z,9.40
2022-12-25T16:50:49.123Z,12.20
2022-12-25T16:53:17.992Z,11.02
2022-12-25T16:55:46.672Z,10.60
2022-12-25T16:58:15.277Z,10.73
2022-12-25T17:00:49.073Z,11.20
2022-12-25T17:03:18.249Z,11.32
2022-12-25T17:05:48.787Z,11.00
2022-12-25T17:08:16.967Z,10.50
2022-12-25T17:10:45.428Z,11.40
2022-12-25T17:13:14.346Z,10.82
2022-12-25T17:15:46.746Z,18.65
2022-12-25T17:18:22.168Z,22.70
2022-12-25T17:20:52.881Z,23.88
2022-12-25T17:23:21.843Z,36.75
2022-12-25T17:25:49.931Z,34.42
2022-12-25T17:28:18.518Z,33.28
2022-12-25T17:30:47.540Z,33.22
2022-12-25T17:33:16.137Z,29.30
2022-12-25T17:35:44.775Z,30.60
2022-12-25T17:38:17.539Z,21.58
2022-12-25T17:40:46.234Z,27.33
2022-12-25T17:43:20.610Z,21.77
2022-12-25T17:45:49.630Z,21.10
2022-12-25T17:48:18.315Z,21.67
2022-12-25T17:50:47.176Z,20.20
2022-12-25T17:53:15.598Z,21.75
2022-12-25T17:55:45.625Z,20.83
2022-12-25T17:58:14.036Z,21.25
2022-12-25T18:00:42.191Z,21.90
2022-12-25T18:03:11.939Z,22.10
2022-12-25T18:05:40.666Z,20.95
2022-12-25T18:08:08.832Z,23.77
2022-12-25T18:10:39.219Z,29.73
2022-12-25T18:13:08.988Z,39.05
2022-12-25T18:15:37.887Z,38.85
2022-12-25T18:18:06.811Z,41.78
2022-12-25T18:20:39.965Z,47.63
2022-12-25T18:23:08.742Z,51.78
2022-12-25T18:25:41.069Z,49.15
2022-12-25T18:28:11.683Z,43.53
2022-12-25T18:30:41.117Z,39.33
2022-12-25T18:33:09.910Z,39.38
2022-12-25T18:35:39.542Z,36.95
2022-12-25T18:38:09.342Z,37.38
2022-12-25T18:40:41.652Z,40.20
2022-12-25T18:43:11.994Z,40.88
2022-12-25T18:45:40.373Z,40.50
2022-12-25T18:48:09.717Z,39.58
2022-12-25T18:50:39.313Z,42.78
2022-12-25T18:53:08.454Z,44.85
2022-12-25T18:55:37.101Z,40.22
2022-12-25T18:58:05.530Z,56.17
2022-12-25T19:00:36.222Z,45.88
2022-12-25T19:03:05.682Z,42.95
2022-12-25T19:05:34.421Z,39.42
2022-12-25T19:08:03.038Z,40.63
2022-12-25T19:10:31.927Z,43.03
2022-12-25T19:13:00.706Z,42.95
2022-12-25T19:15:29.394Z,42.50
2022-12-25T19:18:00.559Z,42.38
2022-12-25T19:20:29.223Z,43.17
2022-12-25T19:22:57.884Z,43.88
2022-12-25T19:25:27.825Z,42.85
2022-12-25T19:27:56.535Z,44.58
2022-12-25T19:30:24.964Z,43.03
2022-12-25T19:32:53.883Z,43.13
2022-12-25T19:35:24.193Z,40.90
2022-12-25T19:37:52.485Z,39.88
2022-12-25T19:40:21.206Z,39.28
2022-12-25T19:42:49.891Z,40.78
2022-12-25T19:45:18.541Z,41.22
2022-12-25T19:47:47.570Z,41.30
2022-12-25T19:50:16.326Z,42.38
2022-12-25T19:52:46.737Z,45.65
2022-12-25T19:55:15.885Z,43.97
2022-12-25T19:57:44.225Z,43.95
2022-12-25T20:00:17.973Z,45.30
2022-12-25T20:02:47.194Z,46.33
2022-12-25T20:05:15.450Z,48.38
2022-12-25T20:07:46.000Z,47.58
2022-12-25T20:10:15.154Z,48.47
2022-12-25T20:12:44.552Z,46.78
2022-12-25T20:15:12.740Z,45.88
2022-12-25T20:17:41.352Z,47.45
2022-12-25T20:20:10.503Z,50.30
2022-12-25T20:22:38.708Z,48.17
2022-12-25T20:25:11.184Z,46.70
2022-12-25T20:27:39.612Z,46.92
2022-12-25T20:30:08.513Z,47.58
2022-12-25T20:32:36.704Z,48.78
2022-12-25T20:35:05.701Z,46.17
2022-12-25T20:37:34.418Z,44.33
2022-12-25T20:40:03.211Z,43.50
2022-12-25T20:42:33.244Z,38.88
2022-12-25T20:45:01.939Z,39.65
2022-12-25T20:47:33.004Z,40.42
2022-12-25T20:50:01.500Z,40.10
2022-12-25T20:52:30.567Z,40.83
2022-12-25T20:54:58.924Z,41.92
2022-12-25T20:57:27.643Z,72.55
2022-12-25T20:59:58.801Z,59.53
2022-12-25T21:02:35.789Z,55.65
2022-12-25T21:05:06.538Z,48.53
2022-12-25T21:07:35.272Z,45.53
2022-12-25T21:10:04.217Z,42.85
2022-12-25T21:12:32.906Z,40.72
2022-12-25T21:15:04.409Z,50.35
2022-12-25T21:17:33.180Z,58.35
2022-12-25T21:20:01.309Z,48.92
2022-12-25T21:22:32.608Z,52.65
2022-12-25T21:25:01.176Z,43.75
2022-12-25T21:27:30.562Z,43.63
2022-12-25T21:29:59.028Z,45.15
2022-12-25T21:33:02.122Z,56.90
2022-12-25T21:35:30.466Z,64.47
2022-12-25T21:37:59.184Z,52.63
2022-12-25T21:40:27.700Z,47.08
2022-12-25T21:42:56.695Z,46.28
2022-12-25T21:45:25.188Z,45.50
2022-12-25T21:48:01.803Z,43.25
2022-12-25T21:50:49.444Z,42.30
2022-12-25T21:53:18.160Z,45.45
2022-12-25T21:55:56.609Z,37.58
2022-12-25T21:58:25.111Z,22.35
2022-12-25T22:00:53.453Z,12.88
2022-12-25T22:03:25.004Z,10.63
2022-12-25T22:06:13.769Z,10.57
2022-12-25T22:08:46.826Z,10.57
2022-12-25T22:11:28.968Z,9.85
2022-12-25T22:14:14.925Z,9.73
2022-12-25T22:17:00.828Z,9.90
2022-12-25T22:19:45.571Z,13.05
2022-12-25T22:22:14.282Z,11.15
2022-12-25T22:24:42.605Z,11.95
2022-12-25T22:27:10.901Z,10.98
2022-12-25T22:29:39.484Z,11.75
2022-12-25T22:32:08.177Z,12.90
2022-12-25T22:34:38.178Z,12.75
2022-12-25T22:37:07.110Z,11.25
2022-12-25T22:39:36.249Z,12.65
2022-12-25T22:42:04.740Z,11.90
2022-12-25T22:44:34.282Z,12.60
2022-12-25T22:47:03.188Z,12.10
2022-12-25T22:49:32.259Z,13.48
2022-12-25T22:52:02.332Z,11.98
2022-12-25T22:54:31.988Z,12.27
2022-12-25T22:57:00.618Z,12.65
2022-12-25T22:59:28.799Z,12.93
2022-12-25T23:01:57.768Z,13.32
2022-12-25T23:04:26.080Z,12.57
2022-12-25T23:06:54.444Z,12.38
2022-12-25T23:09:27.905Z,14.32
2022-12-25T23:11:56.935Z,13.05
2022-12-25T23:14:40.146Z,13.50
2022-12-25T23:17:29.987Z,13.77
2022-12-25T23:20:16.354Z,14.23
2022-12-25T23:23:02.444Z,13.30
2022-12-25T23:25:49.684Z,14.65
2022-12-25T23:28:38.691Z,14.43
2022-12-25T23:31:05.995Z,13.68
2022-12-25T23:33:34.713Z,17.67
2022-12-25T23:36:02.995Z,15.70
2022-12-25T23:38:31.850Z,16.08
2022-12-25T23:41:08.357Z,15.07
2022-12-25T23:43:36.929Z,13.75
2022-12-25T23:46:05.478Z,13.75
2022-12-25T23:48:34.192Z,14.93
2022-12-25T23:51:03.809Z,14.82
2022-12-25T23:53:32.548Z,15.77
2022-12-25T23:56:01.063Z,13.98
2022-12-25T23:58:31.100Z,13.68
